Airfield :
LOGIN :

Register | Disclaimer

   EN    FR    IT 

 










Legend :    VFR   Marginal VFR   IFR   Intensive IFR   Very Intensive IFR
Visi :
Ceiling :
>= 8 km
>= 3000ft
5 to 8 km
1000 to 3000 ft
1500m to 5 km
500 to 1000 ft
800 to 1500m
200 to 500 ft
< 800m
< 200 ft
Symbols :   Thunderstorms  Fog  Heavy snow  Heavy precipitations  Wind > 20 kt
SIGMETs :     Misc.  Thunderstorms  Icing  Turbulence  Mountain Waves  Volcanic Ashes






- Airport Elevation : 1187 ft


LIBV - Gioia del Colle Bari

CURRENT METAR :
  • 231655Z 01009KT CAVOK 28/06 Q1013 RMK FEW FEW200 VIS MIN 9999 WIND THR32 03008KT WIND THR14 01007KT BLU

EXPIRED METARs :
  • 231555Z 36010KT CAVOK 29/06 Q1013 RMK FEW FEW200 VIS MIN 9999 WIND THR32 01011KT WIND THR14 02010KT BLU
  • 231455Z 36011KT 310V030 CAVOK 30/07 Q1013 RMK SKC VIS MIN 9999 WIND THR32 01009KT WIND THR14 01009KT BLU

TAF TAF LIBV
Valid from the 23 at 18:00 until the 24 at 03:00 UTC


231700Z 2318/2403 36008KT CAVOK



MET'MAP, your aeronautical weather chart ! - Copyright ORBIFLY December 2007 - Disclaimer

ORBIFLY MET'MAP TEAM :

Programming & Development : Alexandra Zaïnal
Concept & original design : Baudouin d'Aumeries
Assistance for programming : Marc-Olivier Méhu
Technical & hardware support : Manuel Goepfert

Contact : metmap@orbifly.com




SOURCES & CREDITS :

   NOAA